Time;durP1;ratioP1;P1;durP2;ratioP2;P2;SDS_P1;SDS_P2;PMS_P1;PMS_P2;Temp;Humidity;BMP_temperature;BMP_pressure;BME280_temperature;BME280_humidity;BME280_pressure;Samples;Min_cycle;Max_cycle;Signal;HPM_P1;HPM_P2
2024/04/07 00:05:42;;;;;;;57.30;32.90;;;;;;;11.98;73.45;98890.71;435348;1251;100642;-41
2024/04/07 00:15:48;;;;;;;58.50;35.00;;;;;;;11.86;73.84;98889.92;435230;1251;113187;-41
2024/04/07 00:36:02;;;;;;;47.30;29.10;;;;;;;11.50;74.38;98896.53;435235;1251;99919;-39
2024/04/07 00:46:09;;;;;;;44.60;27.70;;;;;;;11.48;74.80;98896.42;435254;1251;106145;-41
2024/04/07 00:56:16;;;;;;;48.90;27.90;;;;;;;11.47;75.09;98898.63;435196;1257;99349;-41
2024/04/07 01:06:22;;;;;;;49.90;29.80;;;;;;;11.47;75.35;98900.80;435233;1255;113617;-41
2024/04/07 01:16:29;;;;;;;50.60;29.70;;;;;;;11.37;75.58;98905.75;436129;1251;107215;-41
2024/04/07 01:26:36;;;;;;;42.30;26.10;;;;;;;11.26;75.67;98906.74;435340;1253;100619;-41
2024/04/07 01:46:49;;;;;;;43.70;25.80;;;;;;;11.16;76.58;98908.36;435187;1252;100567;-42
2024/04/07 01:56:55;;;;;;;44.90;27.70;;;;;;;11.08;77.06;98913.15;435287;1255;112844;-40
2024/04/07 02:07:02;;;;;;;49.10;28.10;;;;;;;10.96;77.58;98902.34;435142;1256;109469;-41
2024/04/07 02:37:24;;;;;;;39.40;23.30;;;;;;;10.84;78.41;98889.06;435147;1256;100597;-40
2024/04/07 02:57:55;;;;;;;32.20;20.40;;;;;;;10.77;79.02;98884.97;435221;1256;108687;-42
2024/04/07 03:08:02;;;;;;;36.20;20.80;;;;;;;10.82;79.44;98876.23;435269;1256;99711;-40
2024/04/07 03:18:08;;;;;;;37.30;20.50;;;;;;;10.79;79.71;98870.50;435049;1255;107391;-40
2024/04/07 03:28:15;;;;;;;40.60;24.10;;;;;;;10.59;79.90;98866.61;435176;1256;99357;-40
2024/04/07 03:38:22;;;;;;;32.30;19.70;;;;;;;10.44;80.19;98870.45;435146;1256;112875;-40
2024/04/07 03:48:30;;;;;;;37.00;23.00;;;;;;;10.43;80.34;98868.38;435212;1256;107864;-43
2024/04/07 03:58:37;;;;;;;41.20;24.70;;;;;;;10.43;80.46;98862.02;435248;1253;100498;-40
2024/04/07 04:08:45;;;;;;;39.00;20.50;;;;;;;10.43;80.58;98871.39;435129;1256;108555;-40
2024/04/07 04:28:59;;;;;;;40.20;21.70;;;;;;;10.49;81.30;98881.36;435166;1256;111753;-40
2024/04/07 04:49:10;;;;;;;32.40;19.00;;;;;;;10.81;81.54;98874.26;435334;1256;100578;-41
2024/04/07 04:59:16;;;;;;;45.40;25.00;;;;;;;11.05;81.70;98882.30;435328;1256;108812;-40
2024/04/07 05:09:23;;;;;;;49.60;24.70;;;;;;;11.36;81.98;98889.80;435148;1256;99359;-41
2024/04/07 05:19:30;;;;;;;33.60;20.20;;;;;;;12.10;81.99;98893.71;435318;1251;114268;-40
2024/04/07 05:29:37;;;;;;;35.00;20.10;;;;;;;13.15;81.50;98892.79;435156;1263;108462;-40
2024/04/07 05:39:42;;;;;;;31.90;19.90;;;;;;;13.78;80.56;98893.73;434896;1256;512523;-41
2024/04/07 05:49:49;;;;;;;33.80;17.60;;;;;;;14.44;79.23;98887.08;435280;1256;108203;-40
2024/04/07 05:59:56;;;;;;;30.30;17.70;;;;;;;15.15;78.03;98879.84;435210;1256;99454;-41
2024/04/07 06:10:03;;;;;;;32.20;16.70;;;;;;;15.74;76.72;98876.12;435242;1255;113179;-40
2024/04/07 06:20:09;;;;;;;27.50;15.10;;;;;;;16.40;75.17;98885.21;435168;1264;108381;-40
2024/04/07 06:30:15;;;;;;;23.90;15.10;;;;;;;16.98;73.60;98888.61;435253;1256;99292;-40
2024/04/07 06:40:22;;;;;;;26.70;14.10;;;;;;;17.75;72.57;98894.62;435377;1255;108766;-42
2024/04/07 06:50:28;;;;;;;20.70;11.80;;;;;;;18.56;70.96;98900.03;435370;1253;99722;-40
2024/04/07 07:00:35;;;;;;;23.60;12.20;;;;;;;19.02;69.12;98902.91;435361;1255;112713;-40
2024/04/07 07:10:41;;;;;;;18.70;11.40;;;;;;;19.47;67.83;98910.05;435184;1256;108690;-40
2024/04/07 07:20:49;;;;;;;17.40;10.50;;;;;;;19.33;66.77;98917.11;435386;1254;100575;-40
2024/04/07 07:30:55;;;;;;;19.70;9.40;;;;;;;19.70;66.57;98916.73;435247;1251;108710;-42
2024/04/07 07:41:02;;;;;;;16.00;8.20;;;;;;;20.33;65.33;98922.48;435180;1251;100674;-41
2024/04/07 08:01:14;;;;;;;8.30;5.20;;;;;;;21.65;62.29;98928.66;435500;1257;107107;-39
2024/04/07 08:11:21;;;;;;;5.10;3.90;;;;;;;21.96;60.83;98930.11;435330;1263;99415;-40
2024/04/07 08:21:27;;;;;;;7.20;3.20;;;;;;;22.46;60.23;98933.27;435080;1257;108607;-40
2024/04/07 08:31:34;;;;;;;3.80;3.00;;;;;;;22.76;56.64;98934.68;435319;1251;99337;-40
2024/04/07 08:41:40;;;;;;;5.60;3.00;;;;;;;22.50;55.92;98937.30;435305;1251;114095;-39
2024/04/07 08:51:48;;;;;;;4.50;2.90;;;;;;;22.48;55.56;98922.58;435315;1255;106771;-40
2024/04/07 09:01:56;;;;;;;3.20;2.60;;;;;;;22.74;55.65;98923.08;435593;1261;100590;-41
2024/04/07 09:12:01;;;;;;;;;;;;;;;23.08;55.76;98917.23;436303;1258;107278;-41
2024/04/07 09:22:09;;;;;;;4.20;2.40;;;;;;;23.41;54.74;98905.55;435181;1258;100707;-40
2024/04/07 09:32:18;;;;;;;3.00;2.40;;;;;;;23.66;54.27;98901.23;435254;1251;112777;-40
2024/04/07 09:42:28;;;;;;;2.20;2.00;;;;;;;23.82;53.00;98902.90;435109;1253;108305;-45
2024/04/07 09:52:36;;;;;;;2.40;2.20;;;;;;;23.97;52.09;98882.60;435309;1251;100585;-42
2024/04/07 10:12:49;;;;;;;3.60;2.70;;;;;;;24.44;52.26;98879.36;435197;1263;99653;-40
2024/04/07 10:22:55;;;;;;;2.60;2.20;;;;;;;24.70;51.33;98880.05;435538;1257;113315;-40
2024/04/07 10:33:03;;;;;;;2.50;1.80;;;;;;;24.81;50.29;98880.16;435242;1264;107708;-40
2024/04/07 10:43:10;;;;;;;5.20;2.00;;;;;;;25.07;50.06;98876.85;435186;1256;100606;-39
2024/04/07 10:53:16;;;;;;;2.70;2.00;;;;;;;25.29;48.94;98868.51;435284;1263;108651;-39
2024/04/07 11:13:30;;;;;;;3.90;2.10;;;;;;;25.19;47.56;98848.71;435256;1264;113726;-40
2024/04/07 11:23:38;;;;;;;2.90;2.00;;;;;;;25.31;47.85;98840.42;435182;1251;107726;-41
2024/04/07 11:33:51;;;;;;;2.00;1.70;;;;;;;25.47;46.46;98836.02;435183;1251;99305;-41
2024/04/07 11:43:58;;;;;;;3.80;2.10;;;;;;;25.76;46.43;98831.80;435052;1251;107880;-41
2024/04/07 11:54:04;;;;;;;4.30;2.00;;;;;;;25.76;45.83;98828.56;435149;1251;99360;-41
2024/04/07 12:04:09;;;;;;;2.10;1.80;;;;;;;25.76;45.73;98820.70;435451;1257;112905;-40
2024/04/07 12:14:16;;;;;;;4.10;2.50;;;;;;;26.06;45.72;98827.92;435300;1251;107176;-40
2024/04/07 12:24:23;;;;;;;2.10;1.90;;;;;;;26.08;45.30;98821.67;435140;1256;100601;-40
2024/04/07 12:34:29;;;;;;;5.50;3.00;;;;;;;25.92;44.77;98813.83;435178;1256;107478;-39
2024/04/07 12:54:42;;;;;;;5.70;2.10;;;;;;;25.71;44.29;98797.70;435223;1257;113509;-40
2024/04/07 13:04:49;;;;;;;3.20;2.60;;;;;;;25.75;44.62;98788.77;435288;1256;108837;-38
2024/04/07 13:14:58;;;;;;;3.40;2.20;;;;;;;25.93;44.15;98776.48;435222;1251;100687;-41
2024/04/07 13:25:12;;;;;;;2.60;2.20;;;;;;;26.06;43.10;98759.80;435284;1251;108087;-41
2024/04/07 13:35:18;;;;;;;2.90;1.90;;;;;;;26.15;42.80;98749.15;435152;1251;100610;-40
2024/04/07 13:45:23;;;;;;;4.90;2.30;;;;;;;26.20;43.00;98748.70;435140;1251;112536;-41
2024/04/07 13:55:29;;;;;;;;;;;;;;;26.19;43.30;98738.70;435255;1255;109024;-41
2024/04/07 14:15:41;;;;;;;;;;;;;;;26.26;42.89;98734.95;435274;1258;108813;-39
2024/04/07 14:26:03;;;;;;;4.30;2.00;;;;;;;26.24;42.90;98737.18;435290;1256;99365;-40
2024/04/07 14:36:10;;;;;;;2.40;1.10;;;;;;;26.35;43.04;98745.50;435317;1251;112673;-41
2024/04/07 14:46:17;;;;;;;5.60;1.00;;;;;;;26.37;42.08;98746.60;435131;1251;108145;-41
2024/04/07 14:56:23;;;;;;;5.10;1.20;;;;;;;26.27;40.64;98742.72;435122;1256;100607;-41
2024/04/07 15:06:30;;;;;;;2.70;1.30;;;;;;;26.08;40.36;98736.20;435076;1251;107891;-40
2024/04/07 15:16:35;;;;;;;;;;;;;;;26.04;40.76;98728.98;435164;1253;100575;-39
2024/04/07 15:26:42;;;;;;;4.00;1.10;;;;;;;25.92;41.05;98725.65;435326;1256;112580;-38
2024/04/07 15:36:49;;;;;;;4.10;1.40;;;;;;;25.75;40.86;98727.38;435136;1256;108628;-38
2024/04/07 15:46:56;;;;;;;3.80;1.20;;;;;;;25.57;41.29;98722.17;435298;1251;100483;-40
2024/04/07 15:57:02;;;;;;;5.40;2.40;;;;;;;25.46;41.45;98710.52;435228;1251;108492;-40
2024/04/07 16:07:07;;;;;;;;;;;;;;;25.30;41.74;98707.77;435272;1251;100620;-42
2024/04/07 16:17:14;;;;;;;5.60;1.60;;;;;;;25.02;41.87;98708.23;435280;1253;112883;-41
2024/04/07 16:27:23;;;;;;;2.00;1.70;;;;;;;24.74;42.01;98704.86;435159;1251;107512;-41
2024/04/07 16:37:30;;;;;;;4.60;2.40;;;;;;;24.45;42.54;98700.88;435405;1251;99378;-40
2024/04/07 16:57:43;;;;;;;5.40;1.80;;;;;;;23.66;43.20;98677.92;435278;1251;100616;-42
2024/04/07 17:07:50;;;;;;;2.50;2.00;;;;;;;23.18;43.66;98672.38;435419;1255;112842;-41
2024/04/07 17:17:57;;;;;;;6.90;1.90;;;;;;;22.68;44.38;98686.49;435280;1251;107148;-40
2024/04/07 17:28:06;;;;;;;12.00;3.20;;;;;;;22.15;45.34;98697.73;435148;1256;100575;-40
2024/04/07 17:38:13;;;;;;;5.70;3.20;;;;;;;21.51;46.30;98705.95;434831;1253;559971;-40
2024/04/07 17:48:19;;;;;;;15.50;4.60;;;;;;;20.91;47.27;98714.98;435287;1251;100619;-40
2024/04/07 17:58:26;;;;;;;9.40;5.00;;;;;;;20.41;48.25;98715.83;435049;1254;112154;-40
2024/04/07 18:08:33;;;;;;;10.60;5.80;;;;;;;19.93;49.09;98726.95;435280;1256;108513;-42
2024/04/07 18:18:40;;;;;;;9.10;6.00;;;;;;;19.56;50.00;98732.05;435245;1251;99336;-40
2024/04/07 18:28:46;;;;;;;13.60;6.80;;;;;;;19.18;50.72;98731.30;435087;1253;107102;-40
2024/04/07 18:38:52;;;;;;;16.60;9.10;;;;;;;18.79;51.51;98731.33;435075;1255;100590;-40
2024/04/07 18:48:59;;;;;;;13.50;9.20;;;;;;;18.54;52.26;98737.17;435262;1254;114359;-40
2024/04/07 18:59:06;;;;;;;17.40;9.90;;;;;;;18.41;52.88;98739.39;435277;1255;107272;-40
2024/04/07 19:09:11;;;;;;;17.70;10.60;;;;;;;18.31;53.46;98740.27;435279;1251;100417;-41
2024/04/07 19:19:18;;;;;;;20.70;11.50;;;;;;;18.25;54.01;98745.98;435254;1253;107846;-40
2024/04/07 19:29:30;;;;;;;19.90;10.90;;;;;;;18.26;54.65;98746.46;435338;1251;99277;-40
2024/04/07 19:39:37;;;;;;;16.70;10.40;;;;;;;18.30;55.13;98741.39;435285;1256;113537;-39
2024/04/07 19:49:44;;;;;;;18.10;10.40;;;;;;;18.24;55.35;98729.60;435210;1251;108787;-41
2024/04/07 19:59:50;;;;;;;13.30;7.60;;;;;;;18.13;55.73;98734.42;435200;1256;100556;-39
2024/04/07 20:09:56;;;;;;;15.10;7.60;;;;;;;18.04;56.17;98740.85;435286;1255;108108;-40
2024/04/07 20:20:03;;;;;;;10.60;6.70;;;;;;;18.18;56.95;98746.98;435236;1251;100592;-40
2024/04/07 20:30:10;;;;;;;10.60;6.40;;;;;;;18.32;57.34;98745.40;435288;1251;112247;-40
2024/04/07 20:40:16;;;;;;;6.50;4.70;;;;;;;18.30;57.64;98745.69;435232;1256;109977;-42
2024/04/07 21:00:29;;;;;;;9.40;4.80;;;;;;;18.14;58.59;98737.09;435276;1256;107879;-44
2024/04/07 21:10:47;;;;;;;7.00;4.30;;;;;;;18.02;58.88;98735.14;435242;1256;100593;-41
2024/04/07 21:20:54;;;;;;;9.60;4.80;;;;;;;17.98;59.37;98724.87;435138;1256;112990;-42
2024/04/07 21:31:02;;;;;;;11.30;6.10;;;;;;;18.01;59.80;98726.41;435105;1255;109298;-40
2024/04/07 21:41:09;;;;;;;11.20;5.80;;;;;;;17.95;60.18;98725.15;435321;1251;99358;-40
2024/04/07 21:51:15;;;;;;;6.10;4.80;;;;;;;17.93;60.69;98716.96;435452;1256;106816;-42
2024/04/07 22:01:22;;;;;;;8.40;4.60;;;;;;;17.98;60.96;98709.83;435233;1254;100711;-40
2024/04/07 22:11:28;;;;;;;5.10;3.60;;;;;;;17.94;61.22;98711.19;435291;1251;112659;-41
2024/04/07 22:21:35;;;;;;;5.60;3.70;;;;;;;18.00;61.49;98703.46;435175;1256;107338;-40
2024/04/07 22:41:48;;;;;;;4.30;3.60;;;;;;;18.12;61.63;98699.21;435248;1256;106473;-40
2024/04/07 22:51:56;;;;;;;5.30;4.30;;;;;;;18.15;61.62;98694.33;435395;1256;101188;-40
2024/04/07 23:12:09;;;;;;;5.10;3.30;;;;;;;18.11;61.59;98685.52;435282;1256;107998;-40
2024/04/07 23:22:16;;;;;;;4.10;3.10;;;;;;;18.04;61.53;98684.06;435323;1253;99678;-40
2024/04/07 23:32:22;;;;;;;3.90;2.60;;;;;;;17.99;61.60;98676.08;435359;1256;107919;-41
2024/04/07 23:42:29;;;;;;;4.20;2.80;;;;;;;17.93;61.65;98670.64;435312;1253;100564;-39
2024/04/07 23:52:36;;;;;;;3.40;3.10;;;;;;;17.85;62.04;98667.64;435296;1256;113550;-41
